Search for the current weather situation

Metar

Metar
TNCM 120900Z 11006KT 060V140 9999 FEW019 26/22 Q1017 RMK A3006
Decoded Metar

TAF

TAF
TNCM 120900Z 11006KT 060V140 9999 FEW019 26/22 Q1017 RMK A3006
Decoded TAF
Top